Time;durP1;ratioP1;P1;durP2;ratioP2;P2;SDS_P1;SDS_P2;PMS_P1;PMS_P2;Temp;Humidity;BMP_temperature;BMP_pressure;BME280_temperature;BME280_humidity;BME280_pressure;Samples;Min_cycle;Max_cycle;Signal;HPM_P1;HPM_P2
2020/12/27 00:01:30;;;;;;;63.72;27.65;;;;;;;;;;5039737;28;20044;-78
2020/12/27 00:03:58;;;;;;;48.95;25.02;;;;;;;;;;5071887;28;20143;-79
2020/12/27 00:06:29;;;;;;;65.25;25.90;;;;;;;;;;5056306;28;20484;-78
2020/12/27 00:08:56;;;;;;;42.33;22.17;;;;;;;;;;5055216;28;20147;-79
2020/12/27 00:11:24;;;;;;;45.70;21.15;;;;;;;;;;5072561;28;20403;-78
2020/12/27 00:13:51;;;;;;;54.13;25.90;;;;;;;;;;5072106;28;20062;-78
2020/12/27 00:16:26;;;;;;;60.42;28.52;;;;;;;;;;5072456;28;20063;-78
2020/12/27 00:18:54;;;;;;;64.07;26.60;;;;;;;;;;5039714;28;20052;-78
2020/12/27 00:21:22;;;;;;;54.40;25.20;;;;;;;;;;5038329;28;20149;-78
2020/12/27 00:23:49;;;;;;;46.05;21.80;;;;;;;;;;5072248;28;20131;-78
2020/12/27 00:26:17;;;;;;;44.03;22.02;;;;;;;;;;5038972;28;20069;-78
2020/12/27 00:28:45;;;;;;;48.35;20.98;;;;;;;;;;5039206;28;20110;-78
2020/12/27 00:31:17;;;;;;;49.38;22.73;;;;;;;;;;5055421;28;20147;-79
2020/12/27 00:33:45;;;;;;;43.38;21.35;;;;;;;;;;5029926;28;20037;-79
2020/12/27 00:36:21;;;;;;;49.90;21.33;;;;;;;;;;5071709;28;20060;-78
2020/12/27 00:38:49;;;;;;;46.08;22.20;;;;;;;;;;5039191;28;20422;-79
2020/12/27 00:41:24;;;;;;;45.30;21.23;;;;;;;;;;5055440;28;20044;-78
2020/12/27 00:43:53;;;;;;;46.55;20.55;;;;;;;;;;5022908;28;20110;-78
2020/12/27 00:46:21;;;;;;;45.22;21.55;;;;;;;;;;5022365;28;20053;-79
2020/12/27 00:48:49;;;;;;;46.67;21.38;;;;;;;;;;5034829;28;20057;-77
2020/12/27 00:51:22;;;;;;;44.80;20.60;;;;;;;;;;5058210;28;20511;-77
2020/12/27 00:53:50;;;;;;;45.83;22.40;;;;;;;;;;5051026;28;20067;-76
2020/12/27 00:56:19;;;;;;;40.47;20.38;;;;;;;;;;5051259;28;20037;-77
2020/12/27 00:59:06;;;;;;;42.22;20.10;;;;;;;;;;5042825;28;20063;-77
2020/12/27 01:01:34;;;;;;;46.13;20.38;;;;;;;;;;5034974;28;20038;-76
2020/12/27 01:04:19;;;;;;;45.60;19.80;;;;;;;;;;5023063;28;20044;-77
2020/12/27 01:06:47;;;;;;;41.65;20.15;;;;;;;;;;5067577;28;20057;-76
2020/12/27 01:09:15;;;;;;;31.90;16.15;;;;;;;;;;5017814;28;20561;-76
2020/12/27 01:11:45;;;;;;;39.83;19.90;;;;;;;;;;5050987;28;20057;-76
2020/12/27 01:14:17;;;;;;;36.03;18.83;;;;;;;;;;5040632;28;20055;-76
2020/12/27 01:16:52;;;;;;;27.50;15.60;;;;;;;;;;5054583;28;20075;-76
2020/12/27 01:19:24;;;;;;;36.40;16.92;;;;;;;;;;5037660;28;20045;-76
2020/12/27 01:21:55;;;;;;;43.15;20.80;;;;;;;;;;5034656;28;20051;-76
2020/12/27 01:24:39;;;;;;;35.22;17.00;;;;;;;;;;5058892;28;20044;-76
2020/12/27 01:27:07;;;;;;;38.78;17.02;;;;;;;;;;5051041;28;20068;-78
2020/12/27 01:29:35;;;;;;;42.13;18.98;;;;;;;;;;5067789;28;20033;-79
2020/12/27 01:32:15;;;;;;;31.45;17.95;;;;;;;;;;5058457;28;20037;-78
2020/12/27 01:34:49;;;;;;;34.80;16.65;;;;;;;;;;5051132;28;20044;-78
2020/12/27 01:37:18;;;;;;;40.22;17.73;;;;;;;;;;5056676;28;20045;-78
2020/12/27 01:39:50;;;;;;;32.08;16.50;;;;;;;;;;5030240;28;20045;-78
2020/12/27 01:42:18;;;;;;;37.28;17.25;;;;;;;;;;5055020;28;20057;-79
2020/12/27 01:44:45;;;;;;;32.53;16.58;;;;;;;;;;5061946;28;20090;-78
2020/12/27 01:47:34;;;;;;;29.33;15.20;;;;;;;;;;5048104;28;20484;-78
2020/12/27 01:50:03;;;;;;;28.48;16.45;;;;;;;;;;5045454;28;20047;-78
2020/12/27 01:52:32;;;;;;;28.63;15.50;;;;;;;;;;5039132;28;20391;-78
2020/12/27 01:55:06;;;;;;;29.40;15.05;;;;;;;;;;5039763;28;20045;-79
2020/12/27 01:58:14;;;;;;;28.48;14.68;;;;;;;;;;5039930;28;20777;-78
2020/12/27 02:00:47;;;;;;;27.90;14.35;;;;;;;;;;5055598;28;20064;-79
2020/12/27 02:03:44;;;;;;;47.63;21.00;;;;;;;;;;5014394;28;20061;-78
2020/12/27 02:06:21;;;;;;;47.28;22.40;;;;;;;;;;5003976;28;20862;-79
2020/12/27 02:08:54;;;;;;;42.45;19.52;;;;;;;;;;4982371;28;20054;-79
2020/12/27 02:11:34;;;;;;;28.10;16.05;;;;;;;;;;5020333;28;20046;-80
2020/12/27 02:14:02;;;;;;;37.45;17.42;;;;;;;;;;4998197;28;20513;-82
2020/12/27 02:16:34;;;;;;;33.50;16.88;;;;;;;;;;5019421;28;20104;-79
2020/12/27 02:19:40;;;;;;;42.63;21.38;;;;;;;;;;4975066;28;20046;-79
2020/12/27 02:22:19;;;;;;;29.25;15.68;;;;;;;;;;4958127;28;20058;-82
2020/12/27 02:25:05;;;;;;;29.75;15.60;;;;;;;;;;4982516;28;20061;-81
2020/12/27 02:27:34;;;;;;;34.83;16.67;;;;;;;;;;4977950;28;20529;-79
2020/12/27 02:30:04;;;;;;;26.88;14.48;;;;;;;;;;4980870;28;20486;-80
2020/12/27 02:32:32;;;;;;;23.98;13.02;;;;;;;;;;5000437;28;20054;-80
2020/12/27 02:35:00;;;;;;;31.40;14.45;;;;;;;;;;4962397;28;20485;-80
2020/12/27 02:37:28;;;;;;;31.13;15.32;;;;;;;;;;4961643;28;20163;-81
2020/12/27 02:40:04;;;;;;;24.95;13.75;;;;;;;;;;4998662;28;20063;-79
2020/12/27 02:42:51;;;;;;;26.13;12.02;;;;;;;;;;5006100;28;20052;-80
2020/12/27 02:45:20;;;;;;;25.42;13.35;;;;;;;;;;5016669;28;20154;-79
2020/12/27 02:48:06;;;;;;;27.27;12.00;;;;;;;;;;5026379;28;20056;-79
2020/12/27 02:50:46;;;;;;;20.92;11.38;;;;;;;;;;5050226;28;20182;-78
2020/12/27 02:53:15;;;;;;;26.40;12.60;;;;;;;;;;5097653;28;20049;-78
2020/12/27 02:55:42;;;;;;;21.42;11.35;;;;;;;;;;5041236;28;20066;-80
2020/12/27 02:58:10;;;;;;;26.27;12.48;;;;;;;;;;5080857;28;20044;-80
2020/12/27 03:00:39;;;;;;;25.98;11.63;;;;;;;;;;5042568;28;20405;-80
2020/12/27 03:03:25;;;;;;;24.60;12.32;;;;;;;;;;5065982;28;20040;-78
2020/12/27 03:06:00;;;;;;;25.20;12.68;;;;;;;;;;5074992;28;20102;-79
2020/12/27 03:08:29;;;;;;;17.92;9.43;;;;;;;;;;5057051;28;20082;-79
2020/12/27 03:11:19;;;;;;;23.42;10.63;;;;;;;;;;5033400;28;20060;-79
2020/12/27 03:13:49;;;;;;;21.77;11.25;;;;;;;;;;5017275;28;20057;-79
2020/12/27 03:16:18;;;;;;;22.88;10.90;;;;;;;;;;5032134;28;20059;-79
2020/12/27 03:19:03;;;;;;;52.25;26.27;;;;;;;;;;5009276;28;20041;-79
2020/12/27 03:21:54;;;;;;;28.77;13.10;;;;;;;;;;4974285;28;20069;-79
2020/12/27 03:24:41;;;;;;;23.48;11.65;;;;;;;;;;4980441;28;20477;-79
2020/12/27 03:27:09;;;;;;;34.30;14.30;;;;;;;;;;4941532;28;20063;-79
2020/12/27 03:29:37;;;;;;;23.08;11.07;;;;;;;;;;4975228;28;20063;-79
2020/12/27 03:32:05;;;;;;;25.38;14.10;;;;;;;;;;4957249;28;20055;-79
2020/12/27 03:34:33;;;;;;;24.80;11.77;;;;;;;;;;4957440;28;20477;-79
2020/12/27 03:37:01;;;;;;;28.45;15.82;;;;;;;;;;4957155;28;20066;-79
2020/12/27 03:39:54;;;;;;;24.10;10.80;;;;;;;;;;4973558;28;20066;-79
2020/12/27 03:43:00;;;;;;;24.02;11.32;;;;;;;;;;4927095;29;20539;-79
2020/12/27 03:45:29;;;;;;;30.25;13.93;;;;;;;;;;4915778;29;20052;-79
2020/12/27 03:48:06;;;;;;;29.08;14.32;;;;;;;;;;4918860;29;20806;-79
2020/12/27 03:51:06;;;;;;;23.25;12.77;;;;;;;;;;4859232;29;20060;-79
2020/12/27 03:53:34;;;;;;;26.48;15.30;;;;;;;;;;4878119;29;20145;-78
2020/12/27 03:56:24;;;;;;;20.58;11.30;;;;;;;;;;4883452;29;20048;-78
2020/12/27 03:59:11;;;;;;;26.08;14.55;;;;;;;;;;4907330;29;20071;-79
2020/12/27 04:01:44;;;;;;;27.25;16.75;;;;;;;;;;4934659;29;20059;-80
2020/12/27 04:04:12;;;;;;;31.38;17.35;;;;;;;;;;4934303;29;20063;-81
2020/12/27 04:06:40;;;;;;;27.60;17.50;;;;;;;;;;4918275;29;20051;-80
2020/12/27 04:09:22;;;;;;;35.13;19.52;;;;;;;;;;4927546;29;20146;-80
2020/12/27 04:11:50;;;;;;;28.48;19.40;;;;;;;;;;4903273;29;20833;-80
2020/12/27 04:14:18;;;;;;;30.23;17.90;;;;;;;;;;4934222;28;20054;-81
2020/12/27 04:16:46;;;;;;;29.55;18.77;;;;;;;;;;4943820;28;20081;-81
2020/12/27 04:19:16;;;;;;;28.58;17.48;;;;;;;;;;4981442;28;20066;-77
2020/12/27 04:21:58;;;;;;;28.75;15.98;;;;;;;;;;4947545;28;20845;-78
2020/12/27 04:24:41;;;;;;;25.17;14.68;;;;;;;;;;4961920;28;20413;-78
2020/12/27 04:27:12;;;;;;;27.92;15.73;;;;;;;;;;5039309;28;20396;-78
2020/12/27 04:29:40;;;;;;;32.42;17.23;;;;;;;;;;5055687;28;20134;-79
2020/12/27 04:32:11;;;;;;;26.35;15.85;;;;;;;;;;5047218;28;20040;-80
2020/12/27 04:34:59;;;;;;;30.15;17.90;;;;;;;;;;5058823;28;20056;-80
2020/12/27 04:37:32;;;;;;;30.58;19.65;;;;;;;;;;5057733;28;20055;-79
2020/12/27 04:40:11;;;;;;;26.92;17.83;;;;;;;;;;5064221;28;20411;-79
2020/12/27 04:42:42;;;;;;;27.30;16.10;;;;;;;;;;5046626;28;20109;-79
2020/12/27 04:45:19;;;;;;;37.75;20.70;;;;;;;;;;5056737;28;20037;-79
2020/12/27 04:48:09;;;;;;;37.92;19.35;;;;;;;;;;5069373;28;20044;-79
2020/12/27 04:50:55;;;;;;;40.90;22.80;;;;;;;;;;5058051;28;20132;-80
2020/12/27 04:53:23;;;;;;;30.88;17.92;;;;;;;;;;5038833;28;20071;-79
2020/12/27 04:55:53;;;;;;;35.40;19.75;;;;;;;;;;5054587;28;20045;-76
2020/12/27 04:58:38;;;;;;;34.45;19.52;;;;;;;;;;5058817;28;20550;-78
2020/12/27 05:01:12;;;;;;;35.47;20.65;;;;;;;;;;5038571;28;20064;-77
2020/12/27 05:03:58;;;;;;;32.33;16.48;;;;;;;;;;5070233;28;20807;-77
2020/12/27 05:06:33;;;;;;;45.08;19.52;;;;;;;;;;5041399;28;20442;-77
2020/12/27 05:09:03;;;;;;;37.92;19.83;;;;;;;;;;5055788;28;20051;-78
2020/12/27 05:11:34;;;;;;;40.65;22.33;;;;;;;;;;5044575;28;20376;-77
2020/12/27 05:14:15;;;;;;;38.17;20.17;;;;;;;;;;5069246;28;20048;-78
2020/12/27 05:16:58;;;;;;;37.72;19.65;;;;;;;;;;5079712;28;20040;-78
2020/12/27 05:19:43;;;;;;;41.78;19.95;;;;;;;;;;5059724;28;20174;-78
2020/12/27 05:22:11;;;;;;;39.60;18.20;;;;;;;;;;5061699;28;20059;-79
2020/12/27 05:24:57;;;;;;;34.55;16.67;;;;;;;;;;5049758;28;20721;-80
2020/12/27 05:27:44;;;;;;;27.85;16.25;;;;;;;;;;5057891;28;20056;-79
2020/12/27 05:30:29;;;;;;;23.15;12.57;;;;;;;;;;5056920;28;20155;-80
2020/12/27 05:33:18;;;;;;;27.67;15.93;;;;;;;;;;5057872;28;20052;-79
2020/12/27 05:36:15;;;;;;;24.98;14.10;;;;;;;;;;5065326;28;20045;-79
2020/12/27 05:38:48;;;;;;;23.75;13.07;;;;;;;;;;5062330;28;20781;-78
2020/12/27 05:41:45;;;;;;;28.15;12.25;;;;;;;;;;5027219;28;20423;-79
2020/12/27 05:44:20;;;;;;;23.45;13.25;;;;;;;;;;5019642;28;20136;-78
2020/12/27 05:46:56;;;;;;;24.55;12.23;;;;;;;;;;5034674;28;20716;-79
2020/12/27 05:49:28;;;;;;;23.05;12.32;;;;;;;;;;5039156;28;20207;-79
2020/12/27 05:52:14;;;;;;;27.13;12.13;;;;;;;;;;5023440;28;20053;-79
2020/12/27 05:54:57;;;;;;;27.05;14.63;;;;;;;;;;5041741;28;20183;-78
2020/12/27 05:57:34;;;;;;;25.13;12.95;;;;;;;;;;5026587;28;20049;-79
2020/12/27 06:00:06;;;;;;;28.80;17.23;;;;;;;;;;5001016;28;20060;-80
2020/12/27 06:02:42;;;;;;;36.38;18.95;;;;;;;;;;5036896;28;20060;-78
2020/12/27 06:05:56;;;;;;;33.38;17.83;;;;;;;;;;5019125;28;20147;-78
2020/12/27 06:08:31;;;;;;;26.85;15.60;;;;;;;;;;5031438;28;20049;-79
2020/12/27 06:11:04;;;;;;;32.85;15.50;;;;;;;;;;5008954;28;20092;-78
2020/12/27 06:14:04;;;;;;;26.48;14.75;;;;;;;;;;5010736;28;20049;-80
2020/12/27 06:16:49;;;;;;;29.48;13.65;;;;;;;;;;4997316;28;20052;-79
2020/12/27 06:19:40;;;;;;;35.40;19.63;;;;;;;;;;5052200;28;20484;-79
2020/12/27 06:22:11;;;;;;;35.08;16.25;;;;;;;;;;5051364;28;20045;-82
2020/12/27 06:24:51;;;;;;;41.42;18.63;;;;;;;;;;5059097;28;20041;-79
2020/12/27 06:27:22;;;;;;;41.90;19.52;;;;;;;;;;5041003;28;20041;-79
2020/12/27 06:29:54;;;;;;;46.22;21.92;;;;;;;;;;5037846;28;20076;-80
2020/12/27 06:32:26;;;;;;;28.92;14.00;;;;;;;;;;5039287;28;20045;-80
2020/12/27 06:34:57;;;;;;;27.42;13.65;;;;;;;;;;5045082;28;20041;-79
2020/12/27 06:37:24;;;;;;;25.33;13.80;;;;;;;;;;5037846;28;20063;-79
2020/12/27 06:40:20;;;;;;;22.20;12.68;;;;;;;;;;5014199;28;20252;-79
2020/12/27 06:43:25;;;;;;;35.22;17.30;;;;;;;;;;5000000;28;20050;-79
2020/12/27 06:46:28;;;;;;;29.27;14.07;;;;;;;;;;4984523;28;20669;-79
2020/12/27 06:49:17;;;;;;;25.08;16.20;;;;;;;;;;5000181;28;20080;-79
2020/12/27 06:52:22;;;;;;;42.60;22.83;;;;;;;;;;5000258;28;20058;-79
2020/12/27 06:55:36;;;;;;;46.45;21.92;;;;;;;;;;4988946;28;20054;-79
2020/12/27 06:58:24;;;;;;;25.92;14.05;;;;;;;;;;4985696;28;20144;-79
2020/12/27 07:01:12;;;;;;;25.15;12.30;;;;;;;;;;5003036;28;20058;-79
2020/12/27 07:03:41;;;;;;;25.33;11.32;;;;;;;;;;4997388;28;20493;-79
2020/12/27 07:06:22;;;;;;;25.67;14.50;;;;;;;;;;5002483;28;20045;-80
2020/12/27 07:09:05;;;;;;;25.25;13.07;;;;;;;;;;5005798;28;20821;-80
2020/12/27 07:11:33;;;;;;;28.13;16.42;;;;;;;;;;4996358;28;20085;-79
2020/12/27 07:14:02;;;;;;;24.48;14.07;;;;;;;;;;4980133;28;20054;-80
2020/12/27 07:16:48;;;;;;;23.17;14.65;;;;;;;;;;4985348;28;20148;-79
2020/12/27 07:19:17;;;;;;;26.88;15.35;;;;;;;;;;5060590;28;20480;-79
2020/12/27 07:21:47;;;;;;;25.88;16.52;;;;;;;;;;5052738;28;20151;-77
2020/12/27 07:24:21;;;;;;;26.98;15.38;;;;;;;;;;5053071;28;20143;-79
2020/12/27 07:26:50;;;;;;;23.25;14.23;;;;;;;;;;5044093;28;20052;-80
2020/12/27 07:29:24;;;;;;;27.70;16.70;;;;;;;;;;5036942;28;20155;-80
2020/12/27 07:31:53;;;;;;;27.38;14.43;;;;;;;;;;5040394;28;20052;-79
2020/12/27 07:34:28;;;;;;;27.67;14.52;;;;;;;;;;5036687;28;20051;-79
2020/12/27 07:37:06;;;;;;;21.15;13.80;;;;;;;;;;5037070;28;20820;-79
2020/12/27 07:39:57;;;;;;;19.33;12.70;;;;;;;;;;5042610;28;20045;-79
2020/12/27 07:42:29;;;;;;;27.58;15.90;;;;;;;;;;5039638;28;20068;-79
2020/12/27 07:45:06;;;;;;;21.17;15.23;;;;;;;;;;5036932;28;20047;-80
2020/12/27 07:47:57;;;;;;;25.70;15.55;;;;;;;;;;5037454;28;20045;-80
2020/12/27 07:50:25;;;;;;;20.20;13.32;;;;;;;;;;5012337;28;20068;-80
2020/12/27 07:52:59;;;;;;;24.65;15.80;;;;;;;;;;4995844;28;20517;-80
2020/12/27 07:55:33;;;;;;;26.58;14.63;;;;;;;;;;5013796;28;20100;-79
2020/12/27 07:58:06;;;;;;;25.98;15.75;;;;;;;;;;4996162;28;20054;-80
2020/12/27 08:00:40;;;;;;;18.15;11.73;;;;;;;;;;5013954;28;20477;-79
2020/12/27 08:03:09;;;;;;;28.40;16.30;;;;;;;;;;4999837;28;20061;-79
2020/12/27 08:05:40;;;;;;;25.83;16.70;;;;;;;;;;5014970;28;20041;-79
2020/12/27 08:08:10;;;;;;;23.63;14.77;;;;;;;;;;5013368;28;20057;-79
2020/12/27 08:10:39;;;;;;;33.83;20.55;;;;;;;;;;4996063;28;20094;-79
2020/12/27 08:13:07;;;;;;;23.35;15.32;;;;;;;;;;4995219;28;20132;-79
2020/12/27 08:15:40;;;;;;;22.13;14.43;;;;;;;;;;5011405;28;20108;-79
2020/12/27 08:18:10;;;;;;;24.55;16.02;;;;;;;;;;5014718;28;20046;-79
2020/12/27 08:20:49;;;;;;;29.40;14.93;;;;;;;;;;4995607;28;20509;-79
2020/12/27 08:23:19;;;;;;;21.17;14.38;;;;;;;;;;4995993;28;20604;-79
2020/12/27 08:25:59;;;;;;;23.48;14.95;;;;;;;;;;5002696;28;20042;-79
2020/12/27 08:28:27;;;;;;;18.55;12.80;;;;;;;;;;5062500;28;20057;-79
2020/12/27 08:30:55;;;;;;;17.55;11.93;;;;;;;;;;5059270;28;20051;-79
2020/12/27 08:33:22;;;;;;;23.77;13.25;;;;;;;;;;5053260;28;20088;-79
2020/12/27 08:35:51;;;;;;;20.73;12.85;;;;;;;;;;5069252;28;20045;-79
2020/12/27 08:39:03;;;;;;;19.45;12.48;;;;;;;;;;5035761;28;20057;-79
2020/12/27 08:41:33;;;;;;;20.40;11.93;;;;;;;;;;5052460;28;20068;-79
2020/12/27 08:44:40;;;;;;;27.77;15.00;;;;;;;;;;5053279;28;20151;-78
2020/12/27 08:47:46;;;;;;;20.45;12.73;;;;;;;;;;5051471;28;20068;-79
2020/12/27 08:50:16;;;;;;;18.33;11.07;;;;;;;;;;5059329;28;20040;-78
2020/12/27 08:53:00;;;;;;;16.95;11.27;;;;;;;;;;5055707;28;20445;-79
2020/12/27 08:55:30;;;;;;;16.48;10.68;;;;;;;;;;5061988;28;20049;-78
2020/12/27 08:58:18;;;;;;;14.85;9.75;;;;;;;;;;5063545;28;20041;-79
2020/12/27 09:00:47;;;;;;;14.95;10.50;;;;;;;;;;5069300;28;20087;-78
2020/12/27 09:03:16;;;;;;;16.05;10.45;;;;;;;;;;5071659;28;20113;-79
2020/12/27 09:05:44;;;;;;;20.10;12.20;;;;;;;;;;5072138;28;20494;-77
2020/12/27 09:08:18;;;;;;;18.27;11.68;;;;;;;;;;5052685;28;20051;-80
2020/12/27 09:10:47;;;;;;;23.63;12.48;;;;;;;;;;5051673;28;20047;-78
2020/12/27 09:13:17;;;;;;;20.65;11.60;;;;;;;;;;5050534;28;20503;-78
2020/12/27 09:15:49;;;;;;;22.20;11.98;;;;;;;;;;5057106;28;20455;-76
2020/12/27 09:18:27;;;;;;;;;;;;;;;;;;5067669;28;20087;-77
2020/12/27 09:21:06;;;;;;;20.63;8.10;;;;;;;;;;5071515;28;19947;-78
2020/12/27 09:23:35;;;;;;;17.60;10.38;;;;;;;;;;5074866;28;20056;-78
2020/12/27 09:26:13;;;;;;;19.92;11.55;;;;;;;;;;5052921;28;20059;-78
2020/12/27 09:28:41;;;;;;;19.80;11.43;;;;;;;;;;5055998;28;20045;-78
2020/12/27 09:31:14;;;;;;;19.15;10.88;;;;;;;;;;5070374;28;20062;-77
2020/12/27 09:33:47;;;;;;;17.63;8.60;;;;;;;;;;5053070;28;20057;-77
2020/12/27 09:36:17;;;;;;;12.98;9.15;;;;;;;;;;5052817;28;20153;-78
2020/12/27 09:38:48;;;;;;;21.40;12.68;;;;;;;;;;5068951;28;20118;-78
2020/12/27 09:41:20;;;;;;;21.17;13.67;;;;;;;;;;5055986;28;20064;-78
2020/12/27 09:43:55;;;;;;;17.17;10.85;;;;;;;;;;5077525;28;20425;-79
2020/12/27 09:46:46;;;;;;;12.30;8.43;;;;;;;;;;5054287;28;20553;-79
2020/12/27 09:49:26;;;;;;;16.60;8.60;;;;;;;;;;5070857;28;20096;-80
2020/12/27 09:52:12;;;;;;;15.77;10.05;;;;;;;;;;5054929;28;20056;-80
2020/12/27 09:54:43;;;;;;;23.02;12.65;;;;;;;;;;5071367;28;20496;-83
2020/12/27 09:57:18;;;;;;;18.17;10.13;;;;;;;;;;5061706;28;20050;-79
2020/12/27 09:59:51;;;;;;;17.98;9.18;;;;;;;;;;5040779;28;20048;-79
2020/12/27 10:02:21;;;;;;;23.67;10.90;;;;;;;;;;5048737;28;20554;-79
2020/12/27 10:04:49;;;;;;;18.52;11.18;;;;;;;;;;5064974;28;20051;-79
2020/12/27 10:07:17;;;;;;;24.50;10.15;;;;;;;;;;5057994;28;20110;-79
2020/12/27 10:09:45;;;;;;;16.60;9.98;;;;;;;;;;5064362;28;20436;-80
2020/12/27 10:12:13;;;;;;;20.85;10.43;;;;;;;;;;5076038;28;20061;-79
2020/12/27 10:14:41;;;;;;;25.02;12.88;;;;;;;;;;5073633;28;20456;-78
2020/12/27 10:17:09;;;;;;;14.82;8.77;;;;;;;;;;5048105;28;20837;-80
2020/12/27 10:19:38;;;;;;;17.73;9.27;;;;;;;;;;5057877;28;20120;-80
2020/12/27 10:22:06;;;;;;;17.38;9.07;;;;;;;;;;5058023;28;20050;-78
2020/12/27 10:24:33;;;;;;;20.10;10.45;;;;;;;;;;5074660;28;20072;-78
2020/12/27 10:27:04;;;;;;;21.90;10.18;;;;;;;;;;5052948;28;20033;-80
2020/12/27 10:29:33;;;;;;;25.52;10.80;;;;;;;;;;5054680;28;20729;-79
2020/12/27 10:32:06;;;;;;;25.95;11.80;;;;;;;;;;5062932;28;20072;-79
2020/12/27 10:34:35;;;;;;;30.08;11.15;;;;;;;;;;5063839;28;20121;-79
2020/12/27 10:37:04;;;;;;;18.48;9.55;;;;;;;;;;5071815;28;20086;-80
2020/12/27 10:39:32;;;;;;;16.75;9.23;;;;;;;;;;5089918;28;20841;-80
2020/12/27 10:42:00;;;;;;;22.25;10.20;;;;;;;;;;5057012;28;20064;-79
2020/12/27 10:44:28;;;;;;;25.90;12.48;;;;;;;;;;5039817;28;20056;-79
2020/12/27 10:46:56;;;;;;;25.30;10.27;;;;;;;;;;5056572;28;20057;-79
2020/12/27 10:49:24;;;;;;;22.23;10.85;;;;;;;;;;5063231;28;20064;-80
2020/12/27 10:51:52;;;;;;;21.38;13.63;;;;;;;;;;5056719;28;20067;-79
2020/12/27 10:54:20;;;;;;;21.92;10.40;;;;;;;;;;5073822;28;20036;-79
2020/12/27 10:56:48;;;;;;;18.13;9.55;;;;;;;;;;5072440;28;20079;-80
2020/12/27 10:59:16;;;;;;;18.30;8.25;;;;;;;;;;5072629;28;20062;-79
2020/12/27 11:01:49;;;;;;;16.67;9.30;;;;;;;;;;5057324;28;20474;-79
2020/12/27 11:04:18;;;;;;;18.73;10.90;;;;;;;;;;5061091;28;20060;-79
2020/12/27 11:06:47;;;;;;;15.68;7.32;;;;;;;;;;5041147;28;20090;-81
2020/12/27 11:09:16;;;;;;;20.70;9.75;;;;;;;;;;5075256;28;20104;-79
2020/12/27 11:11:44;;;;;;;16.63;8.40;;;;;;;;;;5073926;28;20056;-79
2020/12/27 11:14:12;;;;;;;19.88;10.45;;;;;;;;;;5056805;28;20044;-79
2020/12/27 11:16:39;;;;;;;19.00;10.27;;;;;;;;;;5072003;28;20048;-79
2020/12/27 11:19:07;;;;;;;17.73;10.07;;;;;;;;;;5048776;28;20167;-80
2020/12/27 11:21:34;;;;;;;22.70;11.93;;;;;;;;;;5056915;28;20135;-80
2020/12/27 11:24:02;;;;;;;20.13;9.65;;;;;;;;;;5072206;28;20143;-77
2020/12/27 11:26:30;;;;;;;16.35;8.90;;;;;;;;;;5072728;28;20056;-80
2020/12/27 11:28:57;;;;;;;24.38;12.38;;;;;;;;;;5056604;28;20064;-80
2020/12/27 11:31:25;;;;;;;28.40;17.73;;;;;;;;;;5073955;28;20084;-79
2020/12/27 11:33:52;;;;;;;25.50;16.30;;;;;;;;;;5072751;28;20049;-80
2020/12/27 11:36:20;;;;;;;23.00;10.57;;;;;;;;;;5073454;28;20052;-79
2020/12/27 11:38:47;;;;;;;16.73;9.82;;;;;;;;;;5056620;28;20047;-79
2020/12/27 11:41:16;;;;;;;15.82;8.35;;;;;;;;;;5073009;28;20072;-80
2020/12/27 11:43:45;;;;;;;16.83;8.18;;;;;;;;;;5056638;28;20131;-79
2020/12/27 11:46:13;;;;;;;12.48;5.95;;;;;;;;;;5063260;28;20403;-80
2020/12/27 11:48:41;;;;;;;13.70;6.05;;;;;;;;;;5056477;28;20036;-79
2020/12/27 11:51:10;;;;;;;16.65;7.70;;;;;;;;;;5079581;28;20068;-82
2020/12/27 11:53:52;;;;;;;74.70;31.30;;;;;;;;;;5074809;28;20045;-79
2020/12/27 11:56:20;;;;;;;93.47;35.10;;;;;;;;;;5068669;28;20092;-80
2020/12/27 11:58:48;;;;;;;28.23;11.30;;;;;;;;;;5071754;28;20101;-79
2020/12/27 12:01:16;;;;;;;32.95;14.60;;;;;;;;;;5054904;28;20048;-79
2020/12/27 12:03:46;;;;;;;18.83;9.02;;;;;;;;;;5072224;28;20048;-79
2020/12/27 12:06:25;;;;;;;19.23;9.63;;;;;;;;;;5083254;28;20407;-80
2020/12/27 12:08:53;;;;;;;21.60;10.48;;;;;;;;;;5081854;28;20131;-78
2020/12/27 12:11:20;;;;;;;28.85;11.43;;;;;;;;;;5060831;28;20133;-78
2020/12/27 12:13:48;;;;;;;16.38;9.80;;;;;;;;;;5062269;28;20044;-80
2020/12/27 12:16:22;;;;;;;18.88;9.13;;;;;;;;;;5057824;28;20045;-79
2020/12/27 12:18:50;;;;;;;13.80;6.38;;;;;;;;;;5042555;28;20877;-79
2020/12/27 12:21:18;;;;;;;17.73;8.75;;;;;;;;;;5055291;28;20396;-78
2020/12/27 12:23:45;;;;;;;32.05;18.02;;;;;;;;;;5034356;28;20065;-78
2020/12/27 12:26:25;;;;;;;12.43;7.13;;;;;;;;;;5051050;28;20088;-78
2020/12/27 12:28:54;;;;;;;18.23;7.82;;;;;;;;;;5058479;28;20487;-79
2020/12/27 12:31:23;;;;;;;19.58;9.18;;;;;;;;;;5052041;28;20182;-80
2020/12/27 12:33:51;;;;;;;15.90;7.70;;;;;;;;;;5058803;28;20455;-79
2020/12/27 12:36:22;;;;;;;23.05;10.55;;;;;;;;;;5019382;28;20063;-79
2020/12/27 12:38:51;;;;;;;24.03;11.80;;;;;;;;;;5050996;28;20522;-79
2020/12/27 12:41:27;;;;;;;56.30;23.15;;;;;;;;;;5065547;28;20660;-80
2020/12/27 12:43:59;;;;;;;164.38;58.00;;;;;;;;;;5055584;28;20048;-79
2020/12/27 12:46:27;;;;;;;36.38;15.25;;;;;;;;;;5082802;28;20045;-79
2020/12/27 12:48:56;;;;;;;24.92;9.95;;;;;;;;;;5040347;28;20040;-79
2020/12/27 12:51:24;;;;;;;64.78;34.65;;;;;;;;;;5068415;28;20526;-79
2020/12/27 12:53:52;;;;;;;20.63;10.57;;;;;;;;;;5037525;28;20056;-79
2020/12/27 12:56:20;;;;;;;23.15;10.05;;;;;;;;;;5051419;28;20061;-79
2020/12/27 12:58:47;;;;;;;15.85;8.82;;;;;;;;;;5036809;28;20414;-78
2020/12/27 13:01:15;;;;;;;21.30;10.80;;;;;;;;;;5067244;28;20132;-78
2020/12/27 13:03:43;;;;;;;17.67;11.10;;;;;;;;;;5067398;28;20091;-82
2020/12/27 13:06:12;;;;;;;19.88;10.85;;;;;;;;;;5062018;28;20059;-81
2020/12/27 13:08:40;;;;;;;13.38;8.50;;;;;;;;;;5072077;28;20503;-81
2020/12/27 13:11:08;;;;;;;20.58;10.55;;;;;;;;;;5071110;28;20125;-80
2020/12/27 13:13:37;;;;;;;22.95;9.98;;;;;;;;;;5070891;28;20052;-79
2020/12/27 13:16:06;;;;;;;14.73;8.65;;;;;;;;;;5077838;28;20044;-79
2020/12/27 13:18:33;;;;;;;18.17;9.27;;;;;;;;;;5054519;28;20094;-78
2020/12/27 13:21:01;;;;;;;15.38;9.05;;;;;;;;;;5054002;28;20060;-78
2020/12/27 13:23:28;;;;;;;18.98;8.55;;;;;;;;;;5054136;28;20768;-78
2020/12/27 13:25:56;;;;;;;57.90;25.88;;;;;;;;;;5054830;28;20475;-81
2020/12/27 13:28:25;;;;;;;21.27;10.50;;;;;;;;;;5054861;28;20033;-80
2020/12/27 13:30:52;;;;;;;23.25;10.57;;;;;;;;;;5078872;28;20041;-80
2020/12/27 13:33:20;;;;;;;18.73;9.02;;;;;;;;;;5078687;28;20057;-80
2020/12/27 13:35:48;;;;;;;18.25;8.55;;;;;;;;;;5075050;28;20048;-80
2020/12/27 13:38:15;;;;;;;18.50;9.65;;;;;;;;;;5058888;28;20060;-79
2020/12/27 13:40:42;;;;;;;19.25;8.10;;;;;;;;;;5074735;28;20139;-79
2020/12/27 13:43:16;;;;;;;16.48;7.80;;;;;;;;;;5076360;28;20045;-78
2020/12/27 13:45:43;;;;;;;26.15;9.98;;;;;;;;;;5075360;28;20480;-79
2020/12/27 13:48:11;;;;;;;22.90;10.45;;;;;;;;;;5057029;28;20064;-78
2020/12/27 13:50:39;;;;;;;22.63;11.60;;;;;;;;;;5074435;28;20067;-80
2020/12/27 13:53:06;;;;;;;19.70;9.68;;;;;;;;;;5065205;28;20045;-81
2020/12/27 13:55:34;;;;;;;18.92;9.55;;;;;;;;;;5058275;28;20385;-80
2020/12/27 13:58:01;;;;;;;20.75;9.52;;;;;;;;;;5075759;28;20096;-80
2020/12/27 14:00:29;;;;;;;17.80;8.35;;;;;;;;;;5071377;28;20134;-78
2020/12/27 14:02:57;;;;;;;15.55;7.18;;;;;;;;;;5063098;28;20076;-79
2020/12/27 14:05:25;;;;;;;20.17;10.05;;;;;;;;;;5059726;28;20056;-78
2020/12/27 14:07:53;;;;;;;17.58;8.77;;;;;;;;;;5068417;28;20057;-77
2020/12/27 14:10:21;;;;;;;105.97;42.45;;;;;;;;;;5052322;28;20044;-78
2020/12/27 14:12:49;;;;;;;75.35;33.40;;;;;;;;;;5068854;28;20057;-79
2020/12/27 14:15:16;;;;;;;29.58;12.57;;;;;;;;;;5052136;28;20056;-78
2020/12/27 14:17:44;;;;;;;23.20;11.35;;;;;;;;;;5054588;28;20072;-78
2020/12/27 14:20:12;;;;;;;23.40;12.15;;;;;;;;;;5052140;28;20061;-77
2020/12/27 14:22:40;;;;;;;21.00;11.05;;;;;;;;;;5067717;28;20049;-77
2020/12/27 14:25:08;;;;;;;21.33;11.32;;;;;;;;;;5051063;28;20077;-77
2020/12/27 14:27:36;;;;;;;30.67;15.13;;;;;;;;;;5075104;28;20048;-77
2020/12/27 14:30:03;;;;;;;25.33;11.27;;;;;;;;;;5052504;28;20057;-78
2020/12/27 14:32:31;;;;;;;25.13;14.88;;;;;;;;;;5060802;28;20045;-79
2020/12/27 14:34:59;;;;;;;24.35;14.23;;;;;;;;;;5056011;28;20057;-80
2020/12/27 14:37:26;;;;;;;22.00;11.75;;;;;;;;;;5073724;28;20537;-80
2020/12/27 14:39:53;;;;;;;24.42;13.30;;;;;;;;;;5063506;28;20063;-79
2020/12/27 14:42:21;;;;;;;31.05;18.38;;;;;;;;;;5040501;28;20052;-79
2020/12/27 14:44:52;;;;;;;28.20;14.80;;;;;;;;;;5063458;28;20055;-78
2020/12/27 14:47:19;;;;;;;52.50;23.05;;;;;;;;;;5071347;28;20495;-78
2020/12/27 14:49:47;;;;;;;45.70;21.40;;;;;;;;;;5042744;28;20056;-79
2020/12/27 14:52:15;;;;;;;37.13;17.05;;;;;;;;;;5089093;28;20064;-78
2020/12/27 14:54:43;;;;;;;48.58;22.17;;;;;;;;;;5072095;28;20061;-78
2020/12/27 14:57:10;;;;;;;32.28;14.38;;;;;;;;;;5055186;28;20798;-81